ADDS METAR Data INFO
IDs: Format: Raw Decoded Include TAF

Data at: 0401 UTC 23 Sep 2017

KTRL 230353Z AUTO 14004KT 10SM CLR 26/19 A2994 RMK AO2 SLP130 T02610189
KTRL 230253Z AUTO 13006KT 10SM CLR 27/18 A2993 RMK AO2 SLP128 T02720183 53006
KTRL 230153Z AUTO 12006KT 10SM CLR 28/18 A2992 RMK AO2 SLP126 T02830183
KTRL 230053Z AUTO 12007KT 10SM CLR 29/18 A2991 RMK AO2 SLP122 T02940183
KTRL 222353Z AUTO 12009KT 10SM CLR 32/17 A2991 RMK AO2 SLP121 T03170172 10344 20317 55004
KTRL 222253Z AUTO 11011KT 10SM SCT065 33/17 A2991 RMK AO2 SLP119 T03280172
KTRL 222153Z AUTO 13012KT 10SM CLR 34/16 A2991 RMK AO2 SLP120 T03390161
KTRL 222053Z AUTO 17007G16KT 10SM CLR 34/16 A2992 RMK AO2 SLP124 T03390161 58023
KTRL 221953Z AUTO 18007G17KT 10SM CLR 34/17 A2994 RMK AO2 SLP132 T03390167
KTRL 221853Z AUTO 14009G17KT 110V180 10SM CLR 33/16 A2997 RMK AO2 SLP141 T03280161
KTRL 221753Z AUTO 16013G18KT 10SM CLR 32/17 A2999 RMK AO2 SLP148 T03170172 10322 20233 58007
KTRL 221653Z AUTO 15010G17KT 10SM FEW031 31/19 A3001 RMK AO2 SLP154 T03060194
KTRL 221553Z AUTO 20009KT 10SM SCT024 29/21 A3002 RMK AO2 SLP158 T02890211
KTRL 221453Z AUTO 16011KT 10SM FEW020 27/21 A3001 RMK AO2 SLP156 T02720211 50008
KTRL 221448Z AUTO 18010KT 10SM FEW014 SCT021 27/21 A3001 RMK AO2
KTRL 221440Z AUTO 18010KT 10SM SCT014 BKN021 26/22 A3002 RMK AO2 T02610217
KTRL 221353Z AUTO 17009KT 9SM BKN013 25/22 A3000 RMK AO2 SLP151 T02500222
KTRL 221253Z AUTO 19008KT 8SM OVC013 24/22 A2999 RMK AO2 SLP148 T02390222
KTRL 221205Z AUTO 19006KT 8SM FEW009 OVC014 24/22 A2998 RMK AO2 T02390222
KTRL 221153Z AUTO 18007KT 8SM OVC012 23/22 A2998 RMK AO2 SLP143 70001 T02330222 10239 20228 53007
KTRL 221053Z AUTO 13005KT 8SM BKN009 23/21 A2997 RMK AO2 SLP139 T02280211
KTRL 221051Z AUTO 13004KT 8SM BKN009 23/21 A2997 RMK AO2
KTRL 220953Z AUTO 17003KT 10SM CLR 23/21 A2995 RMK AO2 SLP135 T02280211
KTRL 220853Z AUTO 18004KT 10SM CLR 23/22 A2996 RMK AO2 SLP136 T02330217 53003
KTRL 220753Z AUTO 19005KT 10SM CLR 24/22 A2995 RMK AO2 SLP134 T02390217
KTRL 220653Z AUTO 16005KT 10SM CLR 24/22 A2995 RMK AO2 SLP134 T02390217
KTRL 220553Z AUTO 15008KT 10SM CLR 24/22 A2995 RMK AO2 SLP133 60001 T02390217 10328 20239 403560239 50002
KTRL 220453Z AUTO 15006KT 10SM CLR 24/21 A2995 RMK AO2 SLP135 T02440211 TSNO
KTRL 220353Z AUTO 15007KT 10SM CLR 26/22 A2996 RMK AO2 SLP136 T02560217
KTRL 220253Z AUTO 15010KT 10SM CLR 26/21 A2994 RMK AO2 SLP131 60001 T02610211 53021
KTRL 220153Z AUTO 15008KT 10SM CLR 27/21 A2992 RMK AO2 SLP125 T02670211
KTRL 220053Z AUTO 17011KT 10SM SCT065 BKN090 BKN110 27/22 A2990 RMK AO2 WSHFT 0002 RAB01E34 SLP118 P0001 T02670217
KTRL 220022Z AUTO 17010KT 10SM -RA FEW025 BKN060 OVC080 28/22 A2989 RMK AO2 WSHFT 0002 RAB01 P0000 T02780217
KTRL 212353Z AUTO 13007KT 10SM BKN060 BKN090 33/19 A2988 RMK AO2 SLP111 T03330194 10356 20322 55002
KTRL 212253Z AUTO 14011KT 10SM CLR 34/19 A2988 RMK AO2 SLP109 T03390189
KTRL 212153Z AUTO 14009KT 10SM SCT055 35/20 A2988 RMK AO2 SLP109 T03500200
KTRL 212053Z AUTO 16009KT 10SM CLR 33/19 A2989 RMK AO2 SLP113 T03330189 58025
KTRL 211953Z AUTO 13009G18KT 10SM SCT050 33/20 A2992 RMK AO2 SLP122 T03330200
KTRL 211853Z AUTO 15012G18KT 10SM SCT047 34/21 A2994 RMK AO2 SLP131 T03390206
KTRL 211753Z AUTO 17014G19KT 10SM FEW037 33/21 A2996 RMK AO2 SLP139 T03280211 10333 20250 58006
KTRL 211653Z AUTO 17011G17KT 10SM FEW032 SCT043 32/22 A2998 RMK AO2 SLP143 T03170217